sensor_id;sensor_type;location;lat;lon;timestamp;P1;durP1;ratioP1;P2;durP2;ratioP2
9643;SDS011;4860;50.900;4.720;2023-04-28T00:01:09;0.25;;;0.25;;
9643;SDS011;4860;50.900;4.720;2023-04-28T00:03:36;0.30;;;0.30;;
9643;SDS011;4860;50.900;4.720;2023-04-28T00:06:02;0.20;;;0.20;;
9643;SDS011;4860;50.900;4.720;2023-04-28T00:08:28;0.20;;;0.20;;
9643;SDS011;4860;50.900;4.720;2023-04-28T00:10:55;0.25;;;0.25;;
9643;SDS011;4860;50.900;4.720;2023-04-28T00:13:21;0.30;;;0.30;;
9643;SDS011;4860;50.900;4.720;2023-04-28T00:15:48;0.20;;;0.20;;
9643;SDS011;4860;50.900;4.720;2023-04-28T00:18:14;0.30;;;0.30;;
9643;SDS011;4860;50.900;4.720;2023-04-28T00:20:40;0.30;;;0.30;;
9643;SDS011;4860;50.900;4.720;2023-04-28T00:23:06;0.30;;;0.30;;
9643;SDS011;4860;50.900;4.720;2023-04-28T00:25:33;0.30;;;0.30;;
9643;SDS011;4860;50.900;4.720;2023-04-28T00:27:59;0.30;;;0.30;;
9643;SDS011;4860;50.900;4.720;2023-04-28T00:30:26;0.30;;;0.30;;
9643;SDS011;4860;50.900;4.720;2023-04-28T00:32:52;0.20;;;0.20;;
9643;SDS011;4860;50.900;4.720;2023-04-28T00:35:18;0.30;;;0.30;;
9643;SDS011;4860;50.900;4.720;2023-04-28T00:37:44;0.30;;;0.30;;
9643;SDS011;4860;50.900;4.720;2023-04-28T00:40:11;0.30;;;0.30;;
9643;SDS011;4860;50.900;4.720;2023-04-28T00:42:37;0.30;;;0.30;;
9643;SDS011;4860;50.900;4.720;2023-04-28T00:45:03;0.25;;;0.25;;
9643;SDS011;4860;50.900;4.720;2023-04-28T00:47:34;0.30;;;0.30;;
9643;SDS011;4860;50.900;4.720;2023-04-28T00:50:01;0.30;;;0.30;;
9643;SDS011;4860;50.900;4.720;2023-04-28T00:52:29;0.30;;;0.30;;
9643;SDS011;4860;50.900;4.720;2023-04-28T00:54:56;0.30;;;0.30;;
9643;SDS011;4860;50.900;4.720;2023-04-28T00:57:22;0.22;;;0.22;;
9643;SDS011;4860;50.900;4.720;2023-04-28T00:59:49;0.30;;;0.30;;
9643;SDS011;4860;50.900;4.720;2023-04-28T01:02:15;0.30;;;0.30;;
9643;SDS011;4860;50.900;4.720;2023-04-28T01:04:45;0.28;;;0.28;;
9643;SDS011;4860;50.900;4.720;2023-04-28T01:07:11;0.30;;;0.30;;
9643;SDS011;4860;50.900;4.720;2023-04-28T01:09:38;0.30;;;0.30;;
9643;SDS011;4860;50.900;4.720;2023-04-28T01:12:04;0.30;;;0.30;;
9643;SDS011;4860;50.900;4.720;2023-04-28T01:14:31;0.20;;;0.20;;
9643;SDS011;4860;50.900;4.720;2023-04-28T01:16:57;0.30;;;0.30;;
9643;SDS011;4860;50.900;4.720;2023-04-28T01:19:23;0.30;;;0.30;;
9643;SDS011;4860;50.900;4.720;2023-04-28T01:21:50;0.30;;;0.30;;
9643;SDS011;4860;50.900;4.720;2023-04-28T01:24:16;0.30;;;0.30;;
9643;SDS011;4860;50.900;4.720;2023-04-28T01:26:43;0.20;;;0.20;;
9643;SDS011;4860;50.900;4.720;2023-04-28T01:29:10;0.30;;;0.30;;
9643;SDS011;4860;50.900;4.720;2023-04-28T01:31:36;0.20;;;0.20;;
9643;SDS011;4860;50.900;4.720;2023-04-28T01:34:02;0.20;;;0.20;;
9643;SDS011;4860;50.900;4.720;2023-04-28T01:36:28;0.20;;;0.20;;
9643;SDS011;4860;50.900;4.720;2023-04-28T01:38:54;0.30;;;0.30;;
9643;SDS011;4860;50.900;4.720;2023-04-28T01:41:21;0.25;;;0.25;;
9643;SDS011;4860;50.900;4.720;2023-04-28T01:43:47;0.30;;;0.30;;
9643;SDS011;4860;50.900;4.720;2023-04-28T01:46:13;0.20;;;0.20;;
9643;SDS011;4860;50.900;4.720;2023-04-28T01:48:39;0.28;;;0.28;;
9643;SDS011;4860;50.900;4.720;2023-04-28T01:51:05;0.30;;;0.30;;
9643;SDS011;4860;50.900;4.720;2023-04-28T01:53:32;0.20;;;0.20;;
9643;SDS011;4860;50.900;4.720;2023-04-28T01:55:58;0.20;;;0.20;;
9643;SDS011;4860;50.900;4.720;2023-04-28T01:58:24;0.30;;;0.30;;
9643;SDS011;4860;50.900;4.720;2023-04-28T02:00:50;0.20;;;0.20;;
9643;SDS011;4860;50.900;4.720;2023-04-28T02:03:16;0.20;;;0.20;;
9643;SDS011;4860;50.900;4.720;2023-04-28T02:05:42;0.20;;;0.20;;
9643;SDS011;4860;50.900;4.720;2023-04-28T02:08:09;0.20;;;0.20;;
9643;SDS011;4860;50.900;4.720;2023-04-28T02:10:35;0.30;;;0.30;;
9643;SDS011;4860;50.900;4.720;2023-04-28T02:13:01;0.20;;;0.20;;
9643;SDS011;4860;50.900;4.720;2023-04-28T02:15:27;0.20;;;0.20;;
9643;SDS011;4860;50.900;4.720;2023-04-28T02:17:53;0.30;;;0.30;;
9643;SDS011;4860;50.900;4.720;2023-04-28T02:20:20;0.30;;;0.30;;
9643;SDS011;4860;50.900;4.720;2023-04-28T02:22:46;0.22;;;0.22;;
9643;SDS011;4860;50.900;4.720;2023-04-28T02:25:12;0.30;;;0.30;;
9643;SDS011;4860;50.900;4.720;2023-04-28T02:27:38;0.30;;;0.30;;
9643;SDS011;4860;50.900;4.720;2023-04-28T02:30:05;0.20;;;0.20;;
9643;SDS011;4860;50.900;4.720;2023-04-28T02:32:31;0.20;;;0.20;;
9643;SDS011;4860;50.900;4.720;2023-04-28T02:34:57;0.30;;;0.30;;
9643;SDS011;4860;50.900;4.720;2023-04-28T02:37:23;0.30;;;0.30;;
9643;SDS011;4860;50.900;4.720;2023-04-28T02:39:50;0.30;;;0.30;;
9643;SDS011;4860;50.900;4.720;2023-04-28T02:42:16;0.30;;;0.30;;
9643;SDS011;4860;50.900;4.720;2023-04-28T02:44:42;0.28;;;0.28;;
9643;SDS011;4860;50.900;4.720;2023-04-28T02:47:08;0.30;;;0.30;;
9643;SDS011;4860;50.900;4.720;2023-04-28T02:49:35;0.30;;;0.30;;
9643;SDS011;4860;50.900;4.720;2023-04-28T02:52:01;0.30;;;0.30;;
9643;SDS011;4860;50.900;4.720;2023-04-28T02:54:27;0.20;;;0.20;;
9643;SDS011;4860;50.900;4.720;2023-04-28T02:56:54;0.28;;;0.28;;
9643;SDS011;4860;50.900;4.720;2023-04-28T02:59:20;0.30;;;0.30;;
9643;SDS011;4860;50.900;4.720;2023-04-28T03:01:46;0.30;;;0.30;;
9643;SDS011;4860;50.900;4.720;2023-04-28T03:04:13;0.20;;;0.20;;
9643;SDS011;4860;50.900;4.720;2023-04-28T03:06:39;0.20;;;0.20;;
9643;SDS011;4860;50.900;4.720;2023-04-28T03:09:06;0.20;;;0.20;;
9643;SDS011;4860;50.900;4.720;2023-04-28T03:11:32;0.30;;;0.30;;
9643;SDS011;4860;50.900;4.720;2023-04-28T03:13:58;0.20;;;0.20;;
9643;SDS011;4860;50.900;4.720;2023-04-28T03:16:25;0.20;;;0.20;;
9643;SDS011;4860;50.900;4.720;2023-04-28T03:18:51;0.20;;;0.20;;
9643;SDS011;4860;50.900;4.720;2023-04-28T03:21:17;0.20;;;0.20;;
9643;SDS011;4860;50.900;4.720;2023-04-28T03:23:44;0.20;;;0.20;;
9643;SDS011;4860;50.900;4.720;2023-04-28T03:26:10;0.30;;;0.30;;
9643;SDS011;4860;50.900;4.720;2023-04-28T03:28:36;0.20;;;0.20;;
9643;SDS011;4860;50.900;4.720;2023-04-28T03:31:03;0.20;;;0.20;;
9643;SDS011;4860;50.900;4.720;2023-04-28T03:33:29;0.30;;;0.30;;
9643;SDS011;4860;50.900;4.720;2023-04-28T03:35:55;0.28;;;0.28;;
9643;SDS011;4860;50.900;4.720;2023-04-28T03:38:21;0.30;;;0.30;;
9643;SDS011;4860;50.900;4.720;2023-04-28T03:40:47;0.30;;;0.30;;
9643;SDS011;4860;50.900;4.720;2023-04-28T03:43:14;0.20;;;0.20;;
9643;SDS011;4860;50.900;4.720;2023-04-28T03:45:40;0.20;;;0.20;;
9643;SDS011;4860;50.900;4.720;2023-04-28T03:48:06;0.20;;;0.20;;
9643;SDS011;4860;50.900;4.720;2023-04-28T03:50:32;0.30;;;0.30;;
9643;SDS011;4860;50.900;4.720;2023-04-28T03:52:59;0.20;;;0.20;;
9643;SDS011;4860;50.900;4.720;2023-04-28T03:55:25;0.20;;;0.20;;
9643;SDS011;4860;50.900;4.720;2023-04-28T03:57:51;0.20;;;0.20;;
9643;SDS011;4860;50.900;4.720;2023-04-28T04:00:17;0.15;;;0.15;;
9643;SDS011;4860;50.900;4.720;2023-04-28T04:02:43;0.20;;;0.20;;
9643;SDS011;4860;50.900;4.720;2023-04-28T04:05:10;0.22;;;0.22;;
9643;SDS011;4860;50.900;4.720;2023-04-28T04:07:37;0.20;;;0.20;;
9643;SDS011;4860;50.900;4.720;2023-04-28T04:10:03;0.20;;;0.20;;
9643;SDS011;4860;50.900;4.720;2023-04-28T04:12:29;0.20;;;0.20;;
9643;SDS011;4860;50.900;4.720;2023-04-28T04:14:56;0.20;;;0.20;;
9643;SDS011;4860;50.900;4.720;2023-04-28T04:17:22;0.20;;;0.20;;
9643;SDS011;4860;50.900;4.720;2023-04-28T04:19:48;0.25;;;0.25;;
9643;SDS011;4860;50.900;4.720;2023-04-28T04:22:14;0.20;;;0.20;;
9643;SDS011;4860;50.900;4.720;2023-04-28T04:24:41;0.20;;;0.20;;
9643;SDS011;4860;50.900;4.720;2023-04-28T04:27:07;0.20;;;0.20;;
9643;SDS011;4860;50.900;4.720;2023-04-28T04:29:33;0.20;;;0.20;;
9643;SDS011;4860;50.900;4.720;2023-04-28T04:31:59;0.20;;;0.20;;
9643;SDS011;4860;50.900;4.720;2023-04-28T04:34:25;0.20;;;0.20;;
9643;SDS011;4860;50.900;4.720;2023-04-28T04:36:51;0.20;;;0.20;;
9643;SDS011;4860;50.900;4.720;2023-04-28T04:39:17;0.20;;;0.20;;
9643;SDS011;4860;50.900;4.720;2023-04-28T04:41:44;0.10;;;0.10;;
9643;SDS011;4860;50.900;4.720;2023-04-28T04:44:10;0.20;;;0.20;;
9643;SDS011;4860;50.900;4.720;2023-04-28T04:46:37;0.20;;;0.20;;
9643;SDS011;4860;50.900;4.720;2023-04-28T04:49:03;0.20;;;0.20;;
9643;SDS011;4860;50.900;4.720;2023-04-28T04:51:29;0.20;;;0.20;;
9643;SDS011;4860;50.900;4.720;2023-04-28T04:53:55;0.20;;;0.20;;
9643;SDS011;4860;50.900;4.720;2023-04-28T04:56:21;0.20;;;0.20;;
9643;SDS011;4860;50.900;4.720;2023-04-28T04:58:48;0.20;;;0.20;;
9643;SDS011;4860;50.900;4.720;2023-04-28T05:01:15;0.20;;;0.20;;
9643;SDS011;4860;50.900;4.720;2023-04-28T05:03:41;0.20;;;0.20;;
9643;SDS011;4860;50.900;4.720;2023-04-28T05:06:08;0.20;;;0.20;;
9643;SDS011;4860;50.900;4.720;2023-04-28T05:08:34;0.20;;;0.20;;
9643;SDS011;4860;50.900;4.720;2023-04-28T05:11:00;0.20;;;0.20;;
9643;SDS011;4860;50.900;4.720;2023-04-28T05:13:26;0.20;;;0.20;;
9643;SDS011;4860;50.900;4.720;2023-04-28T05:15:52;0.20;;;0.20;;
9643;SDS011;4860;50.900;4.720;2023-04-28T05:18:18;0.20;;;0.20;;
9643;SDS011;4860;50.900;4.720;2023-04-28T05:20:45;0.20;;;0.20;;
9643;SDS011;4860;50.900;4.720;2023-04-28T05:23:12;0.20;;;0.20;;
9643;SDS011;4860;50.900;4.720;2023-04-28T05:25:38;0.20;;;0.20;;
9643;SDS011;4860;50.900;4.720;2023-04-28T05:28:08;0.20;;;0.20;;
9643;SDS011;4860;50.900;4.720;2023-04-28T05:30:34;0.20;;;0.20;;
9643;SDS011;4860;50.900;4.720;2023-04-28T05:33:00;0.30;;;0.30;;
9643;SDS011;4860;50.900;4.720;2023-04-28T05:35:26;0.20;;;0.20;;
9643;SDS011;4860;50.900;4.720;2023-04-28T05:37:53;0.20;;;0.20;;
9643;SDS011;4860;50.900;4.720;2023-04-28T05:40:19;0.20;;;0.20;;
9643;SDS011;4860;50.900;4.720;2023-04-28T05:42:45;0.20;;;0.20;;
9643;SDS011;4860;50.900;4.720;2023-04-28T05:45:11;0.20;;;0.20;;
9643;SDS011;4860;50.900;4.720;2023-04-28T05:47:37;0.20;;;0.20;;
9643;SDS011;4860;50.900;4.720;2023-04-28T05:50:04;0.10;;;0.10;;
9643;SDS011;4860;50.900;4.720;2023-04-28T05:52:30;0.20;;;0.20;;
9643;SDS011;4860;50.900;4.720;2023-04-28T05:54:56;0.17;;;0.17;;
9643;SDS011;4860;50.900;4.720;2023-04-28T05:57:22;0.15;;;0.15;;
9643;SDS011;4860;50.900;4.720;2023-04-28T05:59:49;0.20;;;0.20;;
9643;SDS011;4860;50.900;4.720;2023-04-28T06:02:15;0.10;;;0.10;;
9643;SDS011;4860;50.900;4.720;2023-04-28T06:04:41;0.10;;;0.10;;
9643;SDS011;4860;50.900;4.720;2023-04-28T06:07:08;0.10;;;0.10;;
9643;SDS011;4860;50.900;4.720;2023-04-28T06:09:35;0.20;;;0.20;;
9643;SDS011;4860;50.900;4.720;2023-04-28T06:12:01;0.10;;;0.10;;
9643;SDS011;4860;50.900;4.720;2023-04-28T06:14:28;0.10;;;0.10;;
9643;SDS011;4860;50.900;4.720;2023-04-28T06:16:54;0.15;;;0.15;;
9643;SDS011;4860;50.900;4.720;2023-04-28T06:19:20;0.10;;;0.10;;
9643;SDS011;4860;50.900;4.720;2023-04-28T06:21:46;0.20;;;0.20;;
9643;SDS011;4860;50.900;4.720;2023-04-28T06:24:14;0.20;;;0.20;;
9643;SDS011;4860;50.900;4.720;2023-04-28T06:26:40;0.20;;;0.20;;
9643;SDS011;4860;50.900;4.720;2023-04-28T06:29:07;0.20;;;0.20;;
9643;SDS011;4860;50.900;4.720;2023-04-28T06:31:33;0.10;;;0.10;;
9643;SDS011;4860;50.900;4.720;2023-04-28T06:33:59;0.10;;;0.10;;
9643;SDS011;4860;50.900;4.720;2023-04-28T06:36:25;0.10;;;0.10;;
9643;SDS011;4860;50.900;4.720;2023-04-28T06:38:52;0.10;;;0.10;;
9643;SDS011;4860;50.900;4.720;2023-04-28T06:41:18;0.10;;;0.10;;
9643;SDS011;4860;50.900;4.720;2023-04-28T06:43:45;0.10;;;0.10;;
9643;SDS011;4860;50.900;4.720;2023-04-28T06:46:11;0.10;;;0.10;;
9643;SDS011;4860;50.900;4.720;2023-04-28T06:48:37;0.10;;;0.10;;
9643;SDS011;4860;50.900;4.720;2023-04-28T06:51:04;0.10;;;0.10;;
9643;SDS011;4860;50.900;4.720;2023-04-28T06:53:30;0.10;;;0.10;;
9643;SDS011;4860;50.900;4.720;2023-04-28T06:55:56;0.10;;;0.10;;
9643;SDS011;4860;50.900;4.720;2023-04-28T06:58:22;0.10;;;0.10;;
9643;SDS011;4860;50.900;4.720;2023-04-28T07:00:48;0.10;;;0.10;;
9643;SDS011;4860;50.900;4.720;2023-04-28T07:03:15;0.10;;;0.10;;
9643;SDS011;4860;50.900;4.720;2023-04-28T07:05:41;0.10;;;0.10;;
9643;SDS011;4860;50.900;4.720;2023-04-28T07:08:07;0.10;;;0.10;;
9643;SDS011;4860;50.900;4.720;2023-04-28T07:10:34;0.05;;;0.05;;
9643;SDS011;4860;50.900;4.720;2023-04-28T07:13:00;0.10;;;0.10;;
9643;SDS011;4860;50.900;4.720;2023-04-28T07:15:26;0.10;;;0.10;;
9643;SDS011;4860;50.900;4.720;2023-04-28T07:17:52;0.10;;;0.10;;
9643;SDS011;4860;50.900;4.720;2023-04-28T07:20:19;0.00;;;0.00;;
9643;SDS011;4860;50.900;4.720;2023-04-28T07:22:45;0.10;;;0.10;;
9643;SDS011;4860;50.900;4.720;2023-04-28T07:25:11;0.10;;;0.10;;
9643;SDS011;4860;50.900;4.720;2023-04-28T07:27:37;0.10;;;0.10;;
9643;SDS011;4860;50.900;4.720;2023-04-28T07:30:04;0.10;;;0.10;;
9643;SDS011;4860;50.900;4.720;2023-04-28T07:32:30;0.10;;;0.10;;
9643;SDS011;4860;50.900;4.720;2023-04-28T07:34:56;0.10;;;0.10;;
9643;SDS011;4860;50.900;4.720;2023-04-28T07:37:22;0.10;;;0.10;;
9643;SDS011;4860;50.900;4.720;2023-04-28T07:39:48;0.10;;;0.10;;
9643;SDS011;4860;50.900;4.720;2023-04-28T07:42:15;0.10;;;0.10;;
9643;SDS011;4860;50.900;4.720;2023-04-28T07:44:43;0.00;;;0.00;;
9643;SDS011;4860;50.900;4.720;2023-04-28T07:47:09;0.10;;;0.10;;
9643;SDS011;4860;50.900;4.720;2023-04-28T07:49:35;0.10;;;0.10;;
9643;SDS011;4860;50.900;4.720;2023-04-28T07:52:02;0.10;;;0.10;;
9643;SDS011;4860;50.900;4.720;2023-04-28T07:54:29;0.10;;;0.10;;
9643;SDS011;4860;50.900;4.720;2023-04-28T07:56:55;0.10;;;0.10;;
9643;SDS011;4860;50.900;4.720;2023-04-28T07:59:25;0.10;;;0.10;;
9643;SDS011;4860;50.900;4.720;2023-04-28T08:01:51;0.10;;;0.10;;
9643;SDS011;4860;50.900;4.720;2023-04-28T08:04:17;0.00;;;0.00;;
9643;SDS011;4860;50.900;4.720;2023-04-28T08:06:43;0.10;;;0.10;;
9643;SDS011;4860;50.900;4.720;2023-04-28T08:09:09;0.10;;;0.10;;
9643;SDS011;4860;50.900;4.720;2023-04-28T08:11:36;0.10;;;0.10;;
9643;SDS011;4860;50.900;4.720;2023-04-28T08:14:02;0.10;;;0.10;;
9643;SDS011;4860;50.900;4.720;2023-04-28T08:16:28;0.10;;;0.10;;
9643;SDS011;4860;50.900;4.720;2023-04-28T08:18:55;0.00;;;0.00;;
9643;SDS011;4860;50.900;4.720;2023-04-28T08:21:21;0.10;;;0.10;;
9643;SDS011;4860;50.900;4.720;2023-04-28T08:23:47;0.10;;;0.10;;
9643;SDS011;4860;50.900;4.720;2023-04-28T08:26:13;0.10;;;0.10;;
9643;SDS011;4860;50.900;4.720;2023-04-28T08:28:39;0.00;;;0.00;;
9643;SDS011;4860;50.900;4.720;2023-04-28T08:31:06;0.10;;;0.10;;
9643;SDS011;4860;50.900;4.720;2023-04-28T08:33:32;0.10;;;0.10;;
9643;SDS011;4860;50.900;4.720;2023-04-28T08:35:58;0.10;;;0.10;;
9643;SDS011;4860;50.900;4.720;2023-04-28T08:38:25;0.10;;;0.10;;
9643;SDS011;4860;50.900;4.720;2023-04-28T08:40:51;0.10;;;0.10;;
9643;SDS011;4860;50.900;4.720;2023-04-28T08:43:18;0.00;;;0.00;;
9643;SDS011;4860;50.900;4.720;2023-04-28T08:45:45;0.10;;;0.10;;
9643;SDS011;4860;50.900;4.720;2023-04-28T08:48:14;0.10;;;0.10;;
9643;SDS011;4860;50.900;4.720;2023-04-28T08:50:43;0.10;;;0.10;;
9643;SDS011;4860;50.900;4.720;2023-04-28T08:53:14;0.00;;;0.00;;
9643;SDS011;4860;50.900;4.720;2023-04-28T08:55:42;0.10;;;0.10;;
9643;SDS011;4860;50.900;4.720;2023-04-28T08:58:08;0.10;;;0.10;;
9643;SDS011;4860;50.900;4.720;2023-04-28T09:00:36;0.00;;;0.00;;
9643;SDS011;4860;50.900;4.720;2023-04-28T09:03:02;0.10;;;0.10;;
9643;SDS011;4860;50.900;4.720;2023-04-28T09:05:29;0.10;;;0.10;;
9643;SDS011;4860;50.900;4.720;2023-04-28T09:07:56;0.00;;;0.00;;
9643;SDS011;4860;50.900;4.720;2023-04-28T09:10:23;0.10;;;0.10;;
9643;SDS011;4860;50.900;4.720;2023-04-28T09:12:51;0.00;;;0.00;;
9643;SDS011;4860;50.900;4.720;2023-04-28T09:15:25;0.10;;;0.10;;
9643;SDS011;4860;50.900;4.720;2023-04-28T09:17:52;0.00;;;0.00;;
9643;SDS011;4860;50.900;4.720;2023-04-28T09:20:19;0.00;;;0.00;;
9643;SDS011;4860;50.900;4.720;2023-04-28T09:22:45;0.08;;;0.08;;
9643;SDS011;4860;50.900;4.720;2023-04-28T09:25:11;0.10;;;0.10;;
9643;SDS011;4860;50.900;4.720;2023-04-28T09:27:38;0.10;;;0.10;;
9643;SDS011;4860;50.900;4.720;2023-04-28T09:30:04;0.00;;;0.00;;
9643;SDS011;4860;50.900;4.720;2023-04-28T09:32:30;0.10;;;0.10;;
9643;SDS011;4860;50.900;4.720;2023-04-28T09:34:57;0.00;;;0.00;;
9643;SDS011;4860;50.900;4.720;2023-04-28T09:37:24;0.03;;;0.03;;
9643;SDS011;4860;50.900;4.720;2023-04-28T09:39:52;0.10;;;0.10;;
9643;SDS011;4860;50.900;4.720;2023-04-28T09:47:30;0.10;;;0.10;;
9643;SDS011;4860;50.900;4.720;2023-04-28T09:49:58;0.10;;;0.10;;
9643;SDS011;4860;50.900;4.720;2023-04-28T09:52:24;0.10;;;0.10;;
9643;SDS011;4860;50.900;4.720;2023-04-28T09:54:51;0.00;;;0.00;;
9643;SDS011;4860;50.900;4.720;2023-04-28T09:57:18;0.03;;;0.03;;
9643;SDS011;4860;50.900;4.720;2023-04-28T09:59:50;0.10;;;0.10;;
9643;SDS011;4860;50.900;4.720;2023-04-28T10:02:17;0.00;;;0.00;;
9643;SDS011;4860;50.900;4.720;2023-04-28T10:04:45;0.00;;;0.00;;
9643;SDS011;4860;50.900;4.720;2023-04-28T10:07:12;0.00;;;0.00;;
9643;SDS011;4860;50.900;4.720;2023-04-28T10:09:39;0.00;;;0.00;;
9643;SDS011;4860;50.900;4.720;2023-04-28T10:12:09;0.00;;;0.00;;
9643;SDS011;4860;50.900;4.720;2023-04-28T10:14:36;0.05;;;0.05;;
9643;SDS011;4860;50.900;4.720;2023-04-28T10:17:03;0.00;;;0.00;;
9643;SDS011;4860;50.900;4.720;2023-04-28T10:19:30;0.00;;;0.00;;
9643;SDS011;4860;50.900;4.720;2023-04-28T10:27:32;0.00;;;0.00;;
9643;SDS011;4860;50.900;4.720;2023-04-28T10:30:12;0.10;;;0.10;;
9643;SDS011;4860;50.900;4.720;2023-04-28T10:32:40;0.08;;;0.08;;
9643;SDS011;4860;50.900;4.720;2023-04-28T10:38:04;0.00;;;0.00;;
9643;SDS011;4860;50.900;4.720;2023-04-28T10:40:30;0.10;;;0.10;;
9643;SDS011;4860;50.900;4.720;2023-04-28T10:42:58;0.00;;;0.00;;
9643;SDS011;4860;50.900;4.720;2023-04-28T10:48:09;0.00;;;0.00;;
9643;SDS011;4860;50.900;4.720;2023-04-28T10:50:35;0.10;;;0.10;;
9643;SDS011;4860;50.900;4.720;2023-04-28T10:53:02;0.00;;;0.00;;
9643;SDS011;4860;50.900;4.720;2023-04-28T10:55:29;0.10;;;0.10;;
9643;SDS011;4860;50.900;4.720;2023-04-28T11:00:46;0.03;;;0.03;;
9643;SDS011;4860;50.900;4.720;2023-04-28T11:08:43;0.10;;;0.10;;
9643;SDS011;4860;50.900;4.720;2023-04-28T11:11:16;0.00;;;0.00;;
9643;SDS011;4860;50.900;4.720;2023-04-28T11:13:43;0.00;;;0.00;;
9643;SDS011;4860;50.900;4.720;2023-04-28T11:16:18;0.00;;;0.00;;
9643;SDS011;4860;50.900;4.720;2023-04-28T11:18:52;0.00;;;0.00;;
9643;SDS011;4860;50.900;4.720;2023-04-28T11:21:19;0.00;;;0.00;;
9643;SDS011;4860;50.900;4.720;2023-04-28T11:23:46;0.00;;;0.00;;
9643;SDS011;4860;50.900;4.720;2023-04-28T11:26:12;0.00;;;0.00;;
9643;SDS011;4860;50.900;4.720;2023-04-28T11:28:45;0.05;;;0.05;;
9643;SDS011;4860;50.900;4.720;2023-04-28T11:31:12;0.00;;;0.00;;
9643;SDS011;4860;50.900;4.720;2023-04-28T11:33:44;0.00;;;0.00;;
9643;SDS011;4860;50.900;4.720;2023-04-28T11:36:30;0.00;;;0.00;;
9643;SDS011;4860;50.900;4.720;2023-04-28T11:38:57;0.00;;;0.00;;
9643;SDS011;4860;50.900;4.720;2023-04-28T11:41:24;0.00;;;0.00;;
9643;SDS011;4860;50.900;4.720;2023-04-28T11:43:50;0.00;;;0.00;;
9643;SDS011;4860;50.900;4.720;2023-04-28T11:46:21;0.10;;;0.10;;
9643;SDS011;4860;50.900;4.720;2023-04-28T11:48:47;0.00;;;0.00;;
9643;SDS011;4860;50.900;4.720;2023-04-28T11:51:34;0.10;;;0.10;;
9643;SDS011;4860;50.900;4.720;2023-04-28T11:54:02;0.00;;;0.00;;
9643;SDS011;4860;50.900;4.720;2023-04-28T11:56:29;0.00;;;0.00;;
9643;SDS011;4860;50.900;4.720;2023-04-28T11:58:59;0.00;;;0.00;;
9643;SDS011;4860;50.900;4.720;2023-04-28T12:01:26;0.10;;;0.10;;
9643;SDS011;4860;50.900;4.720;2023-04-28T12:03:52;0.10;;;0.10;;
9643;SDS011;4860;50.900;4.720;2023-04-28T12:06:19;0.00;;;0.00;;
9643;SDS011;4860;50.900;4.720;2023-04-28T12:08:45;0.10;;;0.10;;
9643;SDS011;4860;50.900;4.720;2023-04-28T12:11:12;0.00;;;0.00;;
9643;SDS011;4860;50.900;4.720;2023-04-28T12:13:39;0.10;;;0.10;;
9643;SDS011;4860;50.900;4.720;2023-04-28T12:16:06;0.10;;;0.10;;
9643;SDS011;4860;50.900;4.720;2023-04-28T12:18:35;0.10;;;0.10;;
9643;SDS011;4860;50.900;4.720;2023-04-28T12:21:03;0.10;;;0.10;;
9643;SDS011;4860;50.900;4.720;2023-04-28T12:25:59;0.10;;;0.10;;
9643;SDS011;4860;50.900;4.720;2023-04-28T12:28:35;0.10;;;0.10;;
9643;SDS011;4860;50.900;4.720;2023-04-28T12:31:07;0.10;;;0.10;;
9643;SDS011;4860;50.900;4.720;2023-04-28T12:33:34;0.10;;;0.10;;
9643;SDS011;4860;50.900;4.720;2023-04-28T12:36:03;0.10;;;0.10;;
9643;SDS011;4860;50.900;4.720;2023-04-28T12:38:30;0.10;;;0.10;;
9643;SDS011;4860;50.900;4.720;2023-04-28T12:40:57;0.10;;;0.10;;
9643;SDS011;4860;50.900;4.720;2023-04-28T12:43:23;0.00;;;0.00;;
9643;SDS011;4860;50.900;4.720;2023-04-28T12:45:54;0.10;;;0.10;;
9643;SDS011;4860;50.900;4.720;2023-04-28T12:48:21;0.10;;;0.10;;
9643;SDS011;4860;50.900;4.720;2023-04-28T12:50:49;0.10;;;0.10;;
9643;SDS011;4860;50.900;4.720;2023-04-28T12:53:15;0.00;;;0.00;;
9643;SDS011;4860;50.900;4.720;2023-04-28T12:55:42;0.10;;;0.10;;
9643;SDS011;4860;50.900;4.720;2023-04-28T12:58:08;0.10;;;0.10;;
9643;SDS011;4860;50.900;4.720;2023-04-28T13:00:34;0.00;;;0.00;;
9643;SDS011;4860;50.900;4.720;2023-04-28T13:03:01;0.10;;;0.10;;
9643;SDS011;4860;50.900;4.720;2023-04-28T13:05:27;0.10;;;0.10;;
9643;SDS011;4860;50.900;4.720;2023-04-28T13:07:53;0.00;;;0.00;;
9643;SDS011;4860;50.900;4.720;2023-04-28T13:10:19;0.10;;;0.10;;
9643;SDS011;4860;50.900;4.720;2023-04-28T13:12:47;0.10;;;0.10;;
9643;SDS011;4860;50.900;4.720;2023-04-28T13:15:13;0.10;;;0.10;;
9643;SDS011;4860;50.900;4.720;2023-04-28T13:17:39;0.10;;;0.10;;
9643;SDS011;4860;50.900;4.720;2023-04-28T13:20:06;0.10;;;0.10;;
9643;SDS011;4860;50.900;4.720;2023-04-28T13:22:32;0.10;;;0.10;;
9643;SDS011;4860;50.900;4.720;2023-04-28T13:24:58;0.10;;;0.10;;
9643;SDS011;4860;50.900;4.720;2023-04-28T13:27:24;0.10;;;0.10;;
9643;SDS011;4860;50.900;4.720;2023-04-28T13:29:51;0.00;;;0.00;;
9643;SDS011;4860;50.900;4.720;2023-04-28T13:32:17;0.10;;;0.10;;
9643;SDS011;4860;50.900;4.720;2023-04-28T13:34:43;0.03;;;0.03;;
9643;SDS011;4860;50.900;4.720;2023-04-28T13:37:09;0.10;;;0.10;;
9643;SDS011;4860;50.900;4.720;2023-04-28T13:39:35;0.10;;;0.10;;
9643;SDS011;4860;50.900;4.720;2023-04-28T13:42:01;0.10;;;0.10;;
9643;SDS011;4860;50.900;4.720;2023-04-28T13:44:29;0.00;;;0.00;;
9643;SDS011;4860;50.900;4.720;2023-04-28T13:46:55;0.10;;;0.10;;
9643;SDS011;4860;50.900;4.720;2023-04-28T13:49:22;0.10;;;0.10;;
9643;SDS011;4860;50.900;4.720;2023-04-28T13:51:48;0.10;;;0.10;;
9643;SDS011;4860;50.900;4.720;2023-04-28T13:54:14;0.10;;;0.10;;
9643;SDS011;4860;50.900;4.720;2023-04-28T13:56:41;0.10;;;0.10;;
9643;SDS011;4860;50.900;4.720;2023-04-28T13:59:07;0.00;;;0.00;;
9643;SDS011;4860;50.900;4.720;2023-04-28T14:01:33;0.10;;;0.10;;
9643;SDS011;4860;50.900;4.720;2023-04-28T14:03:59;0.10;;;0.10;;
9643;SDS011;4860;50.900;4.720;2023-04-28T14:06:26;0.10;;;0.10;;
9643;SDS011;4860;50.900;4.720;2023-04-28T14:08:52;0.10;;;0.10;;
9643;SDS011;4860;50.900;4.720;2023-04-28T14:11:19;0.10;;;0.10;;
9643;SDS011;4860;50.900;4.720;2023-04-28T14:13:45;0.00;;;0.00;;
9643;SDS011;4860;50.900;4.720;2023-04-28T14:16:11;0.00;;;0.00;;
9643;SDS011;4860;50.900;4.720;2023-04-28T14:18:37;0.10;;;0.10;;
9643;SDS011;4860;50.900;4.720;2023-04-28T14:21:03;0.10;;;0.10;;
9643;SDS011;4860;50.900;4.720;2023-04-28T14:23:32;0.00;;;0.00;;
9643;SDS011;4860;50.900;4.720;2023-04-28T14:25:59;0.10;;;0.10;;
9643;SDS011;4860;50.900;4.720;2023-04-28T14:28:26;0.10;;;0.10;;
9643;SDS011;4860;50.900;4.720;2023-04-28T14:30:52;0.10;;;0.10;;
9643;SDS011;4860;50.900;4.720;2023-04-28T14:33:19;0.10;;;0.10;;
9643;SDS011;4860;50.900;4.720;2023-04-28T14:35:45;0.05;;;0.05;;
9643;SDS011;4860;50.900;4.720;2023-04-28T14:38:12;0.10;;;0.10;;
9643;SDS011;4860;50.900;4.720;2023-04-28T14:40:38;0.10;;;0.10;;
9643;SDS011;4860;50.900;4.720;2023-04-28T14:43:04;0.08;;;0.08;;
9643;SDS011;4860;50.900;4.720;2023-04-28T14:45:30;0.00;;;0.00;;
9643;SDS011;4860;50.900;4.720;2023-04-28T14:47:56;0.10;;;0.10;;
9643;SDS011;4860;50.900;4.720;2023-04-28T14:50:23;0.10;;;0.10;;
9643;SDS011;4860;50.900;4.720;2023-04-28T14:52:49;0.10;;;0.10;;
9643;SDS011;4860;50.900;4.720;2023-04-28T14:55:15;0.00;;;0.00;;
9643;SDS011;4860;50.900;4.720;2023-04-28T14:57:41;0.10;;;0.10;;
9643;SDS011;4860;50.900;4.720;2023-04-28T15:00:07;0.10;;;0.10;;
9643;SDS011;4860;50.900;4.720;2023-04-28T15:02:34;0.00;;;0.00;;
9643;SDS011;4860;50.900;4.720;2023-04-28T15:05:00;0.10;;;0.10;;
9643;SDS011;4860;50.900;4.720;2023-04-28T15:07:26;0.10;;;0.10;;
9643;SDS011;4860;50.900;4.720;2023-04-28T15:09:58;0.10;;;0.10;;
9643;SDS011;4860;50.900;4.720;2023-04-28T15:12:24;0.10;;;0.10;;
9643;SDS011;4860;50.900;4.720;2023-04-28T15:14:51;0.00;;;0.00;;
9643;SDS011;4860;50.900;4.720;2023-04-28T15:17:18;0.05;;;0.05;;
9643;SDS011;4860;50.900;4.720;2023-04-28T15:19:45;0.10;;;0.10;;
9643;SDS011;4860;50.900;4.720;2023-04-28T15:22:11;0.10;;;0.10;;
9643;SDS011;4860;50.900;4.720;2023-04-28T15:24:37;0.10;;;0.10;;
9643;SDS011;4860;50.900;4.720;2023-04-28T15:27:04;0.00;;;0.00;;
9643;SDS011;4860;50.900;4.720;2023-04-28T15:29:30;0.10;;;0.10;;
9643;SDS011;4860;50.900;4.720;2023-04-28T15:31:57;0.10;;;0.10;;
9643;SDS011;4860;50.900;4.720;2023-04-28T15:34:23;0.10;;;0.10;;
9643;SDS011;4860;50.900;4.720;2023-04-28T15:36:50;0.10;;;0.10;;
9643;SDS011;4860;50.900;4.720;2023-04-28T15:39:19;0.05;;;0.05;;